ADDS METAR Data INFO
IDs: Format: Raw Decoded Include TAF

Data at: 1948 UTC 23 Jan 2018

METAR for:KEKN (Elkins Arpt, WV, US)
Text:KEKN 231851Z AUTO 25014G26KT 10SM SCT060 07/M01 A2975 RMK AO2 PK WND 26029/1818 RAB07E19 SLP078 P0000 T00721011 TSNO
Temperature: 7.2°C ( 45°F)
Dewpoint: -1.1°C ( 30°F) [RH = 56%]
Pressure (altimeter):29.75 inches Hg (1007.5 mb) [Sea level pressure: 1007.8 mb]
Winds:from the WSW (250 degrees) at 16 MPH (14 knots; 7.2 m/s) gusting to 30 MPH (26 knots; 13.4 m/s)
Visibility:10 or more sm (16+ km)
Ceiling:at least 12,000 feet AGL
Clouds: scattered clouds at 6000 feet AGL
QC Flag:automated observation with no human augmentation
Text:KEKN 231751Z AUTO 26009G26KT 10SM SCT040 OVC050 06/M01 A2975 RMK AO2 PK WND 27028/1740 SLP079 60006 T00611006 10094 20050 51008 TSNO
Temperature: 6.1°C ( 43°F)
Dewpoint: -0.6°C ( 31°F) [RH = 62%]
Pressure (altimeter):29.75 inches Hg (1007.5 mb) [Sea level pressure: 1007.9 mb]
Winds:from the W (260 degrees) at 10 MPH (9 knots; 4.6 m/s) gusting to 30 MPH (26 knots; 13.4 m/s)
Visibility:10 or more sm (16+ km)
Ceiling:5000 feet AGL
Clouds: scattered clouds at 4000 feet AGL, overcast cloud deck at 5000 feet AGL
QC Flag:automated observation with no human augmentation
Text:KEKN 231651Z AUTO 26010G20KT 10SM SCT034 BKN044 07/01 A2975 RMK AO2 RAE08 SLP079 P0000 T00670006 TSNO
Temperature: 6.7°C ( 44°F)
Dewpoint: 0.6°C ( 33°F) [RH = 65%]
Pressure (altimeter):29.75 inches Hg (1007.5 mb) [Sea level pressure: 1007.9 mb]
Winds:from the W (260 degrees) at 12 MPH (10 knots; 5.1 m/s) gusting to 23 MPH (20 knots; 10.3 m/s)
Visibility:10 or more sm (16+ km)
Ceiling:4400 feet AGL
Clouds: scattered clouds at 3400 feet AGL, broken clouds at 4400 feet AGL
QC Flag:automated observation with no human augmentation
Text:KEKN 231551Z AUTO 25011G23KT 8SM -RA FEW022 BKN030 OVC038 06/02 A2975 RMK AO2 SLP080 P0001 T00560022 TSNO
Temperature: 5.6°C ( 42°F)
Dewpoint: 2.2°C ( 36°F) [RH = 79%]
Pressure (altimeter):29.75 inches Hg (1007.5 mb) [Sea level pressure: 1008.0 mb]
Winds:from the WSW (250 degrees) at 13 MPH (11 knots; 5.7 m/s) gusting to 26 MPH (23 knots; 11.8 m/s)
Visibility: 8 sm ( 13 km)
Ceiling:3000 feet AGL
Clouds: few clouds at 2200 feet AGL, broken clouds at 3000 feet AGL, overcast cloud deck at 3800 feet AGL
Weather:-RA (light rain)
QC Flag:automated observation with no human augmentation
Text:KEKN 231451Z AUTO 30014KT 10SM -RA BKN019 BKN025 OVC055 07/03 A2972 RMK AO2 RAE23B40 SLP071 P0003 60005 T00670033 51012 TSNO
Temperature: 6.7°C ( 44°F)
Dewpoint: 3.3°C ( 38°F) [RH = 79%]
Pressure (altimeter):29.72 inches Hg (1006.5 mb) [Sea level pressure: 1007.1 mb]
Winds:from the WNW (300 degrees) at 16 MPH (14 knots; 7.2 m/s)
Visibility:10 or more sm (16+ km)
Ceiling:1900 feet AGL
Clouds: broken clouds at 1900 feet AGL, broken clouds at 2500 feet AGL, overcast cloud deck at 5500 feet AGL
Weather:-RA (light rain)
QC Flag:automated observation with no human augmentation
Text:KEKN 231442Z AUTO 28014G20KT 10SM -RA BKN019 BKN024 OVC041 07/03 A2973 RMK AO2 RAE23B40 P0002 T00720033 TSNO
Temperature: 7.2°C ( 45°F)
Dewpoint: 3.3°C ( 38°F) [RH = 76%]
Pressure (altimeter):29.73 inches Hg (1006.9 mb)
Winds:from the W (280 degrees) at 16 MPH (14 knots; 7.2 m/s) gusting to 23 MPH (20 knots; 10.3 m/s)
Visibility:10 or more sm (16+ km)
Ceiling:1900 feet AGL
Clouds: broken clouds at 1900 feet AGL, broken clouds at 2400 feet AGL, overcast cloud deck at 4100 feet AGL
Weather:-RA (light rain)
QC Flag:automated observation with no human augmentation
Text:KEKN 231351Z AUTO 24012G22KT 4SM RA OVC034 08/04 A2971 RMK AO2 RAB16E26B39 SLP066 P0000 T00830039 TSNO
Temperature: 8.3°C ( 47°F)
Dewpoint: 3.9°C ( 39°F) [RH = 74%]
Pressure (altimeter):29.71 inches Hg (1006.2 mb) [Sea level pressure: 1006.6 mb]
Winds:from the WSW (240 degrees) at 14 MPH (12 knots; 6.2 m/s) gusting to 25 MPH (22 knots; 11.3 m/s)
Visibility: 4 sm ( 6 km)
Ceiling:3400 feet AGL
Clouds: overcast cloud deck at 3400 feet AGL
Weather:RA (moderate rain)
QC Flag:automated observation with no human augmentation
Text:KEKN 231337Z AUTO 25018G22KT 10SM OVC031 09/04 A2970 RMK AO2 RAB16E26 P0000 T00890039 TSNO
Temperature: 8.9°C ( 48°F)
Dewpoint: 3.9°C ( 39°F) [RH = 71%]
Pressure (altimeter):29.70 inches Hg (1005.8 mb)
Winds:from the WSW (250 degrees) at 21 MPH (18 knots; 9.3 m/s) gusting to 25 MPH (22 knots; 11.3 m/s)
Visibility:10 or more sm (16+ km)
Ceiling:3100 feet AGL
Clouds: overcast cloud deck at 3100 feet AGL
QC Flag:automated observation with no human augmentation
Text:KEKN 231251Z AUTO 26010G21KT 10SM BKN025 OVC030 09/06 A2970 RMK AO2 RAB1154E28 SLP059 P0002 T00940056 TSNO
Temperature: 9.4°C ( 49°F)
Dewpoint: 5.6°C ( 42°F) [RH = 77%]
Pressure (altimeter):29.70 inches Hg (1005.8 mb) [Sea level pressure: 1005.9 mb]
Winds:from the W (260 degrees) at 12 MPH (10 knots; 5.1 m/s) gusting to 24 MPH (21 knots; 10.8 m/s)
Visibility:10 or more sm (16+ km)
Ceiling:2500 feet AGL
Clouds: broken clouds at 2500 feet AGL, overcast cloud deck at 3000 feet AGL
QC Flag:automated observation with no human augmentation
Text:KEKN 231151Z AUTO 26008G17KT 10SM SCT020 BKN029 OVC055 09/07 A2968 RMK AO2 PK WND 28029/1052 RAE44 SLP055 P0010 60028 70028 T00940067 10133 20094 53008 TSNO
Temperature: 9.4°C ( 49°F)
Dewpoint: 6.7°C ( 44°F) [RH = 83%]
Pressure (altimeter):29.68 inches Hg (1005.2 mb) [Sea level pressure: 1005.5 mb]
Winds:from the W (260 degrees) at 9 MPH (8 knots; 4.1 m/s) gusting to 20 MPH (17 knots; 8.7 m/s)
Visibility:10 or more sm (16+ km)
Ceiling:2900 feet AGL
Clouds: scattered clouds at 2000 feet AGL, broken clouds at 2900 feet AGL, overcast cloud deck at 5500 feet AGL
QC Flag:automated observation with no human augmentation
Text:KEKN 231124Z AUTO 27007G17KT 220V310 6SM RA SCT021 SCT037 OVC049 09/07 A2968 RMK AO2 PK WND 28029/1052 P0009 T00940067 TSNO
Temperature: 9.4°C ( 49°F)
Dewpoint: 6.7°C ( 44°F) [RH = 83%]
Pressure (altimeter):29.68 inches Hg (1005.2 mb)
Winds:from the W (270 degrees) at 8 MPH (7 knots; 3.6 m/s) gusting to 20 MPH (17 knots; 8.7 m/s)
Visibility: 6 sm ( 10 km)
Ceiling:4900 feet AGL
Clouds: scattered clouds at 2100 feet AGL, scattered clouds at 3700 feet AGL, overcast cloud deck at 4900 feet AGL
Weather:RA (moderate rain)
QC Flag:automated observation with no human augmentation
Text:KEKN 231058Z AUTO 26011G29KT 3SM +RA BKN018 OVC026 09/07 A2968 RMK AO2 PK WND 28029/1052 PRESRR P0004 T00940067 TSNO
Temperature: 9.4°C ( 49°F)
Dewpoint: 6.7°C ( 44°F) [RH = 83%]
Pressure (altimeter):29.68 inches Hg (1005.2 mb)
Winds:from the W (260 degrees) at 13 MPH (11 knots; 5.7 m/s) gusting to 33 MPH (29 knots; 14.9 m/s)
Visibility: 3 sm ( 5 km)
Ceiling:1800 feet AGL
Clouds: broken clouds at 1800 feet AGL, overcast cloud deck at 2600 feet AGL
Weather:+RA (heavy rain)
QC Flag:automated observation with no human augmentation
Text:KEKN 231051Z AUTO 28017G26KT 2 1/2SM RA BR SCT018 BKN028 OVC041 10/08 A2967 RMK AO2 PK WND 29026/1051 RAB36 PRESRR SLP048 P0015 T01000078 TSNO
Temperature: 10.0°C ( 50°F)
Dewpoint: 7.8°C ( 46°F) [RH = 86%]
Pressure (altimeter):29.67 inches Hg (1004.8 mb) [Sea level pressure: 1004.8 mb]
Winds:from the W (280 degrees) at 20 MPH (17 knots; 8.7 m/s) gusting to 30 MPH (26 knots; 13.4 m/s)
Visibility: 2.50 sm ( 4.02 km)
Ceiling:2800 feet AGL
Clouds: scattered clouds at 1800 feet AGL, broken clouds at 2800 feet AGL, overcast cloud deck at 4100 feet AGL
Weather:RA BR (moderate rain, mist)
QC Flag:automated observation with no human augmentation
Text:KEKN 231040Z AUTO 29011G21KT 2SM +RA BR FEW016 BKN024 OVC095 10/08 A2964 RMK AO2 RAB36 P0007 T01000078 TSNO
Temperature: 10.0°C ( 50°F)
Dewpoint: 7.8°C ( 46°F) [RH = 86%]
Pressure (altimeter):29.64 inches Hg (1003.8 mb)
Winds:from the WNW (290 degrees) at 13 MPH (11 knots; 5.7 m/s) gusting to 24 MPH (21 knots; 10.8 m/s)
Visibility: 2.00 sm ( 3.22 km)
Ceiling:2400 feet AGL
Clouds: few clouds at 1600 feet AGL, broken clouds at 2400 feet AGL, overcast cloud deck at 9500 feet AGL
Weather:+RA BR (heavy rain, mist)
QC Flag:automated observation with no human augmentation
Text:KEKN 230951Z AUTO 16004KT 10SM BKN040 BKN050 OVC080 11/09 A2964 RMK AO2 RAE46 SLP037 P0001 T01110089 TSNO
Temperature: 11.1°C ( 52°F)
Dewpoint: 8.9°C ( 48°F) [RH = 86%]
Pressure (altimeter):29.64 inches Hg (1003.8 mb) [Sea level pressure: 1003.7 mb]
Winds:from the SSE (160 degrees) at 5 MPH (4 knots; 2.1 m/s)
Visibility:10 or more sm (16+ km)
Ceiling:4000 feet AGL
Clouds: broken clouds at 4000 feet AGL, broken clouds at 5000 feet AGL, overcast cloud deck at 8000 feet AGL
QC Flag:automated observation with no human augmentation
Text:KEKN 230851Z AUTO 16006KT 10SM -RA BKN060 OVC075 11/09 A2966 RMK AO2 RAB0757 SLP041 P0002 60002 T01110089 58021 TSNO
Temperature: 11.1°C ( 52°F)
Dewpoint: 8.9°C ( 48°F) [RH = 86%]
Pressure (altimeter):29.66 inches Hg (1004.5 mb) [Sea level pressure: 1004.1 mb]
Winds:from the SSE (160 degrees) at 7 MPH (6 knots; 3.1 m/s)
Visibility:10 or more sm (16+ km)
Ceiling:6000 feet AGL
Clouds: broken clouds at 6000 feet AGL, overcast cloud deck at 7500 feet AGL
Weather:-RA (light rain)
QC Flag:automated observation with no human augmentation
Text:KEKN 230751Z AUTO 19006KT 10SM OVC100 13/08 A2969 RMK AO2 SLP051 T01330078 TSNO
Temperature: 13.3°C ( 56°F)
Dewpoint: 7.8°C ( 46°F) [RH = 69%]
Pressure (altimeter):29.69 inches Hg (1005.5 mb) [Sea level pressure: 1005.1 mb]
Winds:from the S (190 degrees) at 7 MPH (6 knots; 3.1 m/s)
Visibility:10 or more sm (16+ km)
Ceiling:10000 feet AGL
Clouds: overcast cloud deck at 10000 feet AGL
QC Flag:automated observation with no human augmentation
Text:KEKN 230651Z AUTO 15009KT 10SM BKN034 13/07 A2970 RMK AO2 RAB15E27 SLP055 P0000 T01280072 TSNO
Temperature: 12.8°C ( 55°F)
Dewpoint: 7.2°C ( 45°F) [RH = 69%]
Pressure (altimeter):29.70 inches Hg (1005.8 mb) [Sea level pressure: 1005.5 mb]
Winds:from the SSE (150 degrees) at 10 MPH (9 knots; 4.6 m/s)
Visibility:10 or more sm (16+ km)
Ceiling:3400 feet AGL
Clouds: broken clouds at 3400 feet AGL
QC Flag:automated observation with no human augmentation
Text:KEKN 230551Z AUTO 16013G19KT 10SM FEW120 13/06 A2972 RMK AO2 PK WND 15026/0521 SLP062 60000 T01280061 10139 20117 58033 TSNO
Temperature: 12.8°C ( 55°F)
Dewpoint: 6.1°C ( 43°F) [RH = 64%]
Pressure (altimeter):29.72 inches Hg (1006.5 mb) [Sea level pressure: 1006.2 mb]
Winds:from the SSE (160 degrees) at 15 MPH (13 knots; 6.7 m/s) gusting to 22 MPH (19 knots; 9.8 m/s)
Visibility:10 or more sm (16+ km)
Ceiling:at least 12,000 feet AGL
Clouds: few clouds at 12000 feet AGL
QC Flag:automated observation with no human augmentation
Text:KEKN 230451Z AUTO 17013G22KT 10SM CLR 12/06 A2976 RMK AO2 SLP077 T01220061 401890056 TSNO
Temperature: 12.2°C ( 54°F)
Dewpoint: 6.1°C ( 43°F) [RH = 66%]
Pressure (altimeter):29.76 inches Hg (1007.9 mb) [Sea level pressure: 1007.7 mb]
Winds:from the S (170 degrees) at 15 MPH (13 knots; 6.7 m/s) gusting to 25 MPH (22 knots; 11.3 m/s)
Visibility:10 or more sm (16+ km)
Ceiling:at least 12,000 feet AGL
Clouds:sky clear below 12,000 feet AGL
QC Flag:automated observation with no human augmentation
Text:KEKN 230351Z AUTO 15009KT 110V170 10SM CLR 12/06 A2980 RMK AO2 SLP094 T01220056 TSNO
Temperature: 12.2°C ( 54°F)
Dewpoint: 5.6°C ( 42°F) [RH = 64%]
Pressure (altimeter):29.80 inches Hg (1009.2 mb) [Sea level pressure: 1009.4 mb]
Winds:from the SSE (150 degrees) at 10 MPH (9 knots; 4.6 m/s)
Visibility:10 or more sm (16+ km)
Ceiling:at least 12,000 feet AGL
Clouds:sky clear below 12,000 feet AGL
QC Flag:automated observation with no human augmentation
Text:KEKN 230251Z AUTO 17010G17KT 10SM FEW070 OVC095 12/05 A2982 RMK AO2 RAB18E35 SLP105 P0000 60000 T01220050 58026 TSNO
Temperature: 12.2°C ( 54°F)
Dewpoint: 5.0°C ( 41°F) [RH = 61%]
Pressure (altimeter):29.82 inches Hg (1009.9 mb) [Sea level pressure: 1010.5 mb]
Winds:from the S (170 degrees) at 12 MPH (10 knots; 5.1 m/s) gusting to 20 MPH (17 knots; 8.7 m/s)
Visibility:10 or more sm (16+ km)
Ceiling:9500 feet AGL
Clouds: few clouds at 7000 feet AGL, overcast cloud deck at 9500 feet AGL
QC Flag:automated observation with no human augmentation
Text:KEKN 230151Z AUTO 16008KT 10SM OVC080 13/03 A2987 RMK AO2 RAB26E47 SLP121 P0000 T01280033 TSNO
Temperature: 12.8°C ( 55°F)
Dewpoint: 3.3°C ( 38°F) [RH = 52%]
Pressure (altimeter):29.87 inches Hg (1011.6 mb) [Sea level pressure: 1012.1 mb]
Winds:from the SSE (160 degrees) at 9 MPH (8 knots; 4.1 m/s)
Visibility:10 or more sm (16+ km)
Ceiling:8000 feet AGL
Clouds: overcast cloud deck at 8000 feet AGL
QC Flag:automated observation with no human augmentation
Text:KEKN 230051Z AUTO 17010KT 10SM SCT120 13/03 A2989 RMK AO2 SLP128 T01330028 TSNO
Temperature: 13.3°C ( 56°F)
Dewpoint: 2.8°C ( 37°F) [RH = 49%]
Pressure (altimeter):29.89 inches Hg (1012.3 mb) [Sea level pressure: 1012.8 mb]
Winds:from the S (170 degrees) at 12 MPH (10 knots; 5.1 m/s)
Visibility:10 or more sm (16+ km)
Ceiling:at least 12,000 feet AGL
Clouds: scattered clouds at 12000 feet AGL
QC Flag:automated observation with no human augmentation
Text:KEKN 222351Z AUTO 15007KT 10SM CLR 14/03 A2990 RMK AO2 SLP133 T01390028 10189 20128 58001 TSNO
Temperature: 13.9°C ( 57°F)
Dewpoint: 2.8°C ( 37°F) [RH = 47%]
Pressure (altimeter):29.90 inches Hg (1012.6 mb) [Sea level pressure: 1013.3 mb]
Winds:from the SSE (150 degrees) at 8 MPH (7 knots; 3.6 m/s)
Visibility:10 or more sm (16+ km)
Ceiling:at least 12,000 feet AGL
Clouds:sky clear below 12,000 feet AGL
QC Flag:automated observation with no human augmentation
Text:KEKN 222251Z AUTO 15007KT 10SM CLR 14/03 A2991 RMK AO2 SLP134 T01440033 TSNO
Temperature: 14.4°C ( 58°F)
Dewpoint: 3.3°C ( 38°F) [RH = 47%]
Pressure (altimeter):29.91 inches Hg (1013.0 mb) [Sea level pressure: 1013.4 mb]
Winds:from the SSE (150 degrees) at 8 MPH (7 knots; 3.6 m/s)
Visibility:10 or more sm (16+ km)
Ceiling:at least 12,000 feet AGL
Clouds:sky clear below 12,000 feet AGL
QC Flag:automated observation with no human augmentation
Text:KEKN 222151Z AUTO 15011KT 10SM CLR 16/03 A2991 RMK AO2 SLP131 T01560028 TSNO
Temperature: 15.6°C ( 60°F)
Dewpoint: 2.8°C ( 37°F) [RH = 42%]
Pressure (altimeter):29.91 inches Hg (1013.0 mb) [Sea level pressure: 1013.1 mb]
Winds:from the SSE (150 degrees) at 13 MPH (11 knots; 5.7 m/s)
Visibility:10 or more sm (16+ km)
Ceiling:at least 12,000 feet AGL
Clouds:sky clear below 12,000 feet AGL
QC Flag:automated observation with no human augmentation
Text:KEKN 222051Z AUTO 15009KT 10SM CLR 17/03 A2991 RMK AO2 SLP132 T01670033 56019 TSNO
Temperature: 16.7°C ( 62°F)
Dewpoint: 3.3°C ( 38°F) [RH = 41%]
Pressure (altimeter):29.91 inches Hg (1013.0 mb) [Sea level pressure: 1013.2 mb]
Winds:from the SSE (150 degrees) at 10 MPH (9 knots; 4.6 m/s)
Visibility:10 or more sm (16+ km)
Ceiling:at least 12,000 feet AGL
Clouds:sky clear below 12,000 feet AGL
QC Flag:automated observation with no human augmentation
Text:KEKN 221951Z AUTO 16008KT 10SM CLR 18/04 A2991 RMK AO2 SLP134 T01780039 TSNO
Temperature: 17.8°C ( 64°F)
Dewpoint: 3.9°C ( 39°F) [RH = 40%]
Pressure (altimeter):29.91 inches Hg (1013.0 mb) [Sea level pressure: 1013.4 mb]
Winds:from the SSE (160 degrees) at 9 MPH (8 knots; 4.1 m/s)
Visibility:10 or more sm (16+ km)
Ceiling:at least 12,000 feet AGL
Clouds:sky clear below 12,000 feet AGL
QC Flag:automated observation with no human augmentation